Time;durP1;ratioP1;P1;durP2;ratioP2;P2;SDS_P1;SDS_P2;PMS_P1;PMS_P2;Temp;Humidity;BMP_temperature;BMP_pressure;BME280_temperature;BME280_humidity;BME280_pressure;Samples;Min_cycle;Max_cycle;Signal;HPM_P1;HPM_P2
2023/01/06 00:02:19;;;;;;;12.95;3.85;;;;;;;10.16;100.00;101856.38;5036188;28;20742;-75
2023/01/06 00:04:45;;;;;;;11.20;3.60;;;;;;;10.19;100.00;101861.47;5036772;28;20120;-74
2023/01/06 00:07:10;;;;;;;15.85;3.90;;;;;;;10.20;100.00;101862.34;5031985;28;20113;-73
2023/01/06 00:09:35;;;;;;;8.25;3.83;;;;;;;10.21;100.00;101859.44;5034569;28;20025;-73
2023/01/06 00:12:02;;;;;;;6.60;3.50;;;;;;;10.28;100.00;101860.47;5035840;28;20477;-75
2023/01/06 00:14:29;;;;;;;7.55;3.50;;;;;;;10.27;100.00;101846.94;5038024;28;20032;-74
2023/01/06 00:16:54;;;;;;;14.57;3.40;;;;;;;10.27;100.00;101847.81;5033661;28;20160;-73
2023/01/06 00:19:20;;;;;;;8.07;3.58;;;;;;;10.35;100.00;101844.22;5035157;28;20572;-74
2023/01/06 00:21:45;;;;;;;14.18;4.32;;;;;;;10.34;100.00;101850.69;5035761;28;20048;-74
2023/01/06 00:24:12;;;;;;;9.25;3.60;;;;;;;10.29;100.00;101834.78;5036955;28;20116;-74
2023/01/06 00:26:37;;;;;;;8.30;3.15;;;;;;;10.31;100.00;101829.16;5039314;28;20029;-73
2023/01/06 00:29:03;;;;;;;7.20;3.30;;;;;;;10.27;100.00;101827.78;5033152;28;20485;-75
2023/01/06 00:31:28;;;;;;;8.83;2.80;;;;;;;10.32;100.00;101828.97;5038885;28;20021;-74
2023/01/06 00:33:56;;;;;;;10.90;4.70;;;;;;;10.32;100.00;101828.13;5038387;28;20033;-74
2023/01/06 00:36:21;;;;;;;8.35;3.00;;;;;;;10.30;100.00;101827.44;5036028;28;20487;-74
2023/01/06 00:38:48;;;;;;;7.22;3.10;;;;;;;10.34;100.00;101826.06;5035829;28;20025;-74
2023/01/06 00:43:59;;;;;;;9.15;3.25;;;;;;;10.31;100.00;101831.88;5038770;28;20506;-73
2023/01/06 00:46:27;;;;;;;8.15;2.95;;;;;;;10.34;100.00;101834.25;5035643;28;20082;-75
2023/01/06 00:48:56;;;;;;;10.82;2.90;;;;;;;10.35;100.00;101831.34;5033063;28;20033;-74
2023/01/06 00:51:22;;;;;;;7.63;2.55;;;;;;;10.39;100.00;101824.53;5031621;28;20032;-73
2023/01/06 00:53:48;;;;;;;8.90;3.42;;;;;;;10.33;100.00;101818.88;5030935;28;20029;-74
2023/01/06 00:56:13;;;;;;;6.70;2.43;;;;;;;10.35;100.00;101812.19;5038192;28;20112;-73
2023/01/06 00:58:40;;;;;;;8.05;2.38;;;;;;;10.38;100.00;101824.69;5037874;28;20159;-73
2023/01/06 01:01:07;;;;;;;14.27;2.53;;;;;;;10.39;100.00;101818.16;5033788;28;20039;-73
2023/01/06 01:03:34;;;;;;;7.07;2.42;;;;;;;10.41;100.00;101811.50;5035535;28;20048;-73
2023/01/06 01:06:04;;;;;;;6.45;2.20;;;;;;;10.40;100.00;101801.56;5033450;28;20064;-73
2023/01/06 01:08:30;;;;;;;8.38;2.40;;;;;;;10.41;100.00;101802.44;5034826;28;20048;-73
2023/01/06 01:11:03;;;;;;;6.35;2.40;;;;;;;10.38;100.00;101802.78;5039274;28;20067;-74
2023/01/06 01:13:28;;;;;;;6.10;2.00;;;;;;;10.50;100.00;101802.25;5039900;28;20034;-74
2023/01/06 01:15:54;;;;;;;11.50;3.00;;;;;;;10.55;100.00;101812.69;5039098;28;20033;-73
2023/01/06 01:18:19;;;;;;;8.27;2.33;;;;;;;10.47;100.00;101807.22;5040376;28;20017;-73
2023/01/06 01:20:46;;;;;;;8.82;2.40;;;;;;;10.47;100.00;101813.53;5031716;28;20056;-73
2023/01/06 01:23:11;;;;;;;6.68;1.95;;;;;;;10.43;100.00;101803.13;5026050;28;20040;-74
2023/01/06 01:25:39;;;;;;;5.00;1.80;;;;;;;10.48;100.00;101808.94;5038002;28;20040;-73
2023/01/06 01:28:05;;;;;;;7.63;1.98;;;;;;;10.50;100.00;101806.84;5033040;28;20490;-74
2023/01/06 01:30:30;;;;;;;3.63;1.80;;;;;;;10.49;100.00;101813.38;5036966;28;20025;-74
2023/01/06 01:32:56;;;;;;;8.15;2.10;;;;;;;10.50;100.00;101818.69;5035853;28;20032;-75
2023/01/06 01:35:21;;;;;;;10.18;2.15;;;;;;;10.52;100.00;101811.13;5040014;28;20122;-73
2023/01/06 01:37:46;;;;;;;11.40;2.42;;;;;;;10.47;100.00;101797.09;5035129;28;20397;-73
2023/01/06 01:40:12;;;;;;;7.73;2.10;;;;;;;10.45;100.00;101795.56;5041697;28;20020;-73
2023/01/06 01:42:37;;;;;;;8.17;2.17;;;;;;;10.45;100.00;101799.19;5041112;28;20021;-73
2023/01/06 01:45:20;;;;;;;9.70;2.20;;;;;;;10.42;100.00;101791.28;5039149;28;20029;-74
2023/01/06 01:48:02;;;;;;;11.00;2.60;;;;;;;10.48;100.00;101792.50;5042110;28;20064;-74
2023/01/06 01:50:35;;;;;;;8.80;2.40;;;;;;;10.41;100.00;101788.75;5037930;28;20127;-73
2023/01/06 01:53:06;;;;;;;5.22;1.83;;;;;;;10.43;100.00;101792.16;5039219;28;20033;-74
2023/01/06 01:55:34;;;;;;;5.22;2.05;;;;;;;10.37;100.00;101770.94;5038655;28;20022;-73
2023/01/06 01:58:14;;;;;;;5.80;2.20;;;;;;;10.38;100.00;101775.38;5036600;28;20032;-73
2023/01/06 02:00:42;;;;;;;4.18;2.00;;;;;;;10.41;100.00;101772.31;5042698;28;20075;-74
2023/01/06 02:03:08;;;;;;;9.18;2.08;;;;;;;10.39;100.00;101761.53;5040794;28;20409;-74
2023/01/06 02:05:38;;;;;;;4.28;1.73;;;;;;;10.42;100.00;101757.59;5033614;28;20025;-73
2023/01/06 02:08:20;;;;;;;3.22;1.65;;;;;;;10.42;100.00;101741.16;5045715;28;20109;-74
2023/01/06 02:10:45;;;;;;;3.97;1.98;;;;;;;10.41;100.00;101742.19;5036301;28;20071;-73
2023/01/06 02:13:11;;;;;;;7.10;1.93;;;;;;;10.45;100.00;101747.13;5040475;28;20501;-73
2023/01/06 02:15:36;;;;;;;5.93;2.05;;;;;;;10.48;100.00;101735.84;5036532;28;20025;-73
2023/01/06 02:18:33;;;;;;;5.72;2.10;;;;;;;10.50;100.00;101735.63;5027109;28;20394;-74
2023/01/06 02:21:19;;;;;;;6.30;1.95;;;;;;;10.50;100.00;101735.63;5035005;28;20031;-74
2023/01/06 02:24:19;;;;;;;5.07;2.05;;;;;;;10.49;100.00;101715.63;5036685;28;20037;-73
2023/01/06 02:27:19;;;;;;;11.30;2.63;;;;;;;10.50;100.00;101711.84;5040736;28;20179;-74
2023/01/06 02:30:11;;;;;;;5.90;2.25;;;;;;;10.46;100.00;101715.97;5039330;28;20120;-74
2023/01/06 02:32:51;;;;;;;7.13;1.90;;;;;;;10.47;100.00;101719.56;5038421;28;20029;-74
2023/01/06 02:35:25;;;;;;;5.60;1.90;;;;;;;10.51;100.00;101712.72;5037334;28;20032;-74
2023/01/06 02:37:59;;;;;;;5.13;1.90;;;;;;;10.48;100.00;101713.06;5039290;28;20061;-74
2023/01/06 02:40:45;;;;;;;4.35;1.80;;;;;;;10.49;100.00;101709.28;5038922;28;20098;-74
2023/01/06 02:43:22;;;;;;;5.22;1.80;;;;;;;10.46;100.00;101704.19;5033555;28;20400;-73
2023/01/06 02:46:10;;;;;;;10.90;2.30;;;;;;;10.48;100.00;101713.94;5037231;28;20041;-76
2023/01/06 02:49:01;;;;;;;7.95;2.13;;;;;;;10.49;100.00;101712.91;5038465;28;20051;-74
2023/01/06 02:51:50;;;;;;;4.85;2.53;;;;;;;10.42;100.00;101708.28;5032735;28;20038;-74
2023/01/06 02:54:41;;;;;;;5.95;1.90;;;;;;;10.50;99.79;101700.91;5037614;28;20021;-73
2023/01/06 02:57:16;;;;;;;9.23;2.25;;;;;;;10.50;99.81;101683.59;5037402;28;20049;-75
2023/01/06 03:00:18;;;;;;;4.10;1.75;;;;;;;10.44;100.00;101676.09;5036350;28;20033;-74
2023/01/06 03:02:52;;;;;;;12.40;2.10;;;;;;;10.51;98.93;101664.25;5036300;28;20669;-74
2023/01/06 03:05:18;;;;;;;5.43;1.60;;;;;;;10.50;99.52;101667.16;5036817;28;20025;-74
2023/01/06 03:07:46;;;;;;;6.78;1.75;;;;;;;10.52;99.13;101662.38;5037343;28;20485;-74
2023/01/06 03:10:14;;;;;;;6.30;1.48;;;;;;;10.54;99.15;101657.56;5037484;28;20060;-73
2023/01/06 03:13:03;;;;;;;4.93;2.00;;;;;;;10.52;99.38;101657.75;5039136;28;20041;-73
2023/01/06 03:15:28;;;;;;;4.68;1.70;;;;;;;10.58;98.38;101651.53;5043044;28;20497;-73
2023/01/06 03:17:54;;;;;;;7.22;1.90;;;;;;;10.58;99.13;101656.19;5040551;28;20056;-73
2023/01/06 03:20:19;;;;;;;4.13;2.13;;;;;;;10.60;98.50;101654.13;5039080;28;20021;-74
2023/01/06 03:22:46;;;;;;;7.90;2.40;;;;;;;10.62;98.08;101654.81;5038924;28;20094;-73
2023/01/06 03:25:13;;;;;;;;;;;;;;;10.61;98.77;101653.94;5040634;28;20033;-73
2023/01/06 03:27:38;;;;;;;9.85;2.40;;;;;;;10.59;98.50;101644.19;5042779;28;19917;-74
2023/01/06 03:30:08;;;;;;;5.93;1.95;;;;;;;10.64;98.26;101641.78;5033251;28;20495;-73
2023/01/06 03:32:47;;;;;;;7.65;2.25;;;;;;;10.65;98.67;101646.22;5040140;28;20021;-73
2023/01/06 03:36:02;;;;;;;10.10;2.13;;;;;;;10.60;99.16;101643.16;5040698;28;20021;-73
2023/01/06 03:38:42;;;;;;;5.75;2.03;;;;;;;10.62;99.01;101633.72;4996900;28;20041;-73
2023/01/06 03:43:10;;;;;;;6.28;1.90;;;;;;;10.60;99.34;101632.19;5033868;28;20029;-75
2023/01/06 03:44:27;;;;;;;5.38;2.13;;;;;;;10.65;98.74;101629.78;5040212;28;20168;-75
2023/01/06 03:47:03;;;;;;;3.15;1.80;;;;;;;10.57;99.02;101619.72;5033563;28;20077;-75
2023/01/06 03:49:40;;;;;;;8.30;1.95;;;;;;;10.61;99.32;101632.03;5036200;28;20032;-75
2023/01/06 03:52:20;;;;;;;4.13;1.98;;;;;;;10.64;98.97;101633.56;5039662;28;20048;-76
2023/01/06 03:54:53;;;;;;;7.45;2.70;;;;;;;10.65;98.62;101644.34;5032923;28;20462;-72
2023/01/06 03:57:35;;;;;;;8.35;1.48;;;;;;;10.66;98.80;101623.25;5039801;28;20091;-72
2023/01/06 04:00:06;;;;;;;7.93;1.80;;;;;;;10.70;98.67;101635.56;5034737;28;20091;-73
2023/01/06 04:02:32;;;;;;;4.45;1.63;;;;;;;10.67;98.43;101620.34;5035607;28;20132;-72
2023/01/06 04:05:13;;;;;;;9.52;2.35;;;;;;;10.68;98.90;101624.78;5034084;28;20022;-73
2023/01/06 04:07:40;;;;;;;3.40;1.40;;;;;;;10.70;98.58;101619.13;5044522;28;20124;-73
2023/01/06 04:10:09;;;;;;;5.72;1.70;;;;;;;10.65;99.10;101607.84;5035055;28;20035;-72
2023/01/06 04:12:37;;;;;;;4.25;2.10;;;;;;;10.67;98.90;101614.03;5035546;28;20466;-73
2023/01/06 04:15:18;;;;;;;1.75;1.65;;;;;;;10.68;98.88;101611.09;5036081;28;20108;-72
2023/01/06 04:17:45;;;;;;;5.40;1.92;;;;;;;10.70;98.62;101602.69;5034224;28;20049;-72
2023/01/06 04:20:13;;;;;;;;;;;;;;;10.71;98.47;101609.88;5035523;28;20029;-72
2023/01/06 04:22:39;;;;;;;2.67;1.70;;;;;;;10.67;98.53;101601.16;5036831;28;19920;-72
2023/01/06 04:25:05;;;;;;;5.20;1.93;;;;;;;10.65;98.89;101595.03;5038783;28;20029;-73
2023/01/06 04:27:31;;;;;;;4.80;1.65;;;;;;;10.59;99.27;101586.66;5029639;28;20076;-72
2023/01/06 04:29:56;;;;;;;4.07;1.70;;;;;;;10.59;99.44;101584.78;5034988;28;20068;-73
2023/01/06 04:32:22;;;;;;;4.30;1.90;;;;;;;10.66;98.97;101593.13;5039167;28;20067;-72
2023/01/06 04:34:47;;;;;;;6.45;1.95;;;;;;;10.65;98.63;101591.41;5039100;28;20029;-72
2023/01/06 04:37:13;;;;;;;6.13;1.57;;;;;;;10.60;99.32;101591.09;5037512;28;20056;-72
2023/01/06 04:39:38;;;;;;;2.17;1.50;;;;;;;10.58;99.90;101598.66;5034238;28;20060;-73
2023/01/06 04:42:04;;;;;;;6.05;1.60;;;;;;;10.56;99.79;101589.78;5033784;28;20370;-72
2023/01/06 04:44:29;;;;;;;4.80;1.50;;;;;;;10.54;99.91;101583.59;5039933;28;20102;-70
2023/01/06 04:46:54;;;;;;;12.50;2.53;;;;;;;10.58;100.00;101582.22;5034702;28;20516;-71
2023/01/06 04:49:20;;;;;;;6.68;1.52;;;;;;;10.61;99.40;101576.38;5036261;28;20037;-72
2023/01/06 04:51:45;;;;;;;4.50;1.60;;;;;;;10.59;99.20;101578.44;5036348;28;20096;-71
2023/01/06 04:54:11;;;;;;;4.78;1.90;;;;;;;10.51;99.96;101571.13;5040306;28;20508;-72
2023/01/06 04:56:36;;;;;;;1.80;1.10;;;;;;;10.58;99.62;101580.31;5033443;28;20033;-73
2023/01/06 04:59:03;;;;;;;3.17;1.50;;;;;;;10.62;99.24;101567.16;5035943;28;20049;-73
2023/01/06 05:01:29;;;;;;;2.50;1.30;;;;;;;10.61;98.85;101559.94;5036833;28;20022;-74
2023/01/06 05:03:55;;;;;;;3.67;1.63;;;;;;;10.63;98.91;101563.38;5037385;28;20148;-72
2023/01/06 05:06:20;;;;;;;4.15;1.42;;;;;;;10.60;99.19;101553.63;5036500;28;20124;-71
2023/01/06 05:08:47;;;;;;;6.80;1.70;;;;;;;10.64;99.10;101554.09;5034807;28;20033;-72
2023/01/06 05:11:21;;;;;;;2.40;1.20;;;;;;;10.62;99.09;101553.44;5039129;28;20033;-71
2023/01/06 05:13:46;;;;;;;6.10;1.60;;;;;;;10.58;99.62;101549.34;5053396;28;20025;-71
2023/01/06 05:16:18;;;;;;;3.70;1.27;;;;;;;10.58;100.00;101544.69;5046659;28;20021;-71
2023/01/06 05:18:44;;;;;;;2.65;1.10;;;;;;;10.54;100.00;101551.59;5039299;28;20025;-72
2023/01/06 05:21:10;;;;;;;2.63;1.45;;;;;;;10.54;100.00;101559.81;5035322;28;20484;-71
2023/01/06 05:23:36;;;;;;;4.22;1.30;;;;;;;10.56;100.00;101559.66;5040631;28;20131;-71
2023/01/06 05:26:02;;;;;;;2.50;1.40;;;;;;;10.47;100.00;101552.50;5041562;28;20021;-72
2023/01/06 05:28:28;;;;;;;6.07;1.53;;;;;;;10.46;100.00;101568.06;5039354;28;20519;-71
2023/01/06 05:31:01;;;;;;;2.67;1.38;;;;;;;10.47;100.00;101564.28;5041837;28;20061;-72
2023/01/06 05:33:27;;;;;;;2.50;1.45;;;;;;;10.45;100.00;101555.41;5042089;28;20478;-71
2023/01/06 05:36:00;;;;;;;7.43;1.42;;;;;;;10.45;100.00;101552.66;5039775;28;20505;-72
2023/01/06 05:38:26;;;;;;;3.78;1.73;;;;;;;10.49;100.00;101544.94;5044317;28;20029;-72
2023/01/06 05:40:52;;;;;;;2.47;1.10;;;;;;;10.48;100.00;101554.19;5040447;28;20040;-74
2023/01/06 05:43:18;;;;;;;4.72;1.30;;;;;;;10.52;100.00;101555.56;5053692;28;20393;-71
2023/01/06 05:45:43;;;;;;;5.03;1.38;;;;;;;10.55;100.00;101555.16;5022749;28;20043;-72
2023/01/06 05:48:09;;;;;;;5.60;1.50;;;;;;;10.56;100.00;101556.91;5042125;28;20040;-73
2023/01/06 05:50:34;;;;;;;4.13;1.37;;;;;;;10.56;100.00;101546.78;5032389;28;20115;-73
2023/01/06 05:52:59;;;;;;;3.73;1.40;;;;;;;10.54;100.00;101559.81;5038834;28;20667;-72
2023/01/06 05:55:25;;;;;;;2.63;1.27;;;;;;;10.52;100.00;101550.91;5034131;28;20091;-72
2023/01/06 05:57:50;;;;;;;2.00;1.33;;;;;;;10.53;100.00;101552.63;5045866;28;20448;-72
2023/01/06 06:00:16;;;;;;;3.05;1.30;;;;;;;10.51;100.00;101559.34;5036173;28;20025;-72
2023/01/06 06:02:41;;;;;;;10.70;1.93;;;;;;;10.47;100.00;101552.50;5034571;28;20117;-74
2023/01/06 06:05:07;;;;;;;3.03;1.55;;;;;;;10.45;100.00;101557.28;5038034;28;20040;-72
2023/01/06 06:07:32;;;;;;;5.68;1.50;;;;;;;10.42;100.00;101563.13;5032480;28;20017;-72
2023/01/06 06:09:57;;;;;;;2.88;1.60;;;;;;;10.44;100.00;101570.13;5035705;28;20045;-71
2023/01/06 06:12:23;;;;;;;3.20;1.60;;;;;;;10.43;100.00;101565.69;5037804;28;20481;-72
2023/01/06 06:14:48;;;;;;;11.75;1.95;;;;;;;10.37;100.00;101573.75;5039925;28;20037;-71
2023/01/06 06:17:14;;;;;;;1.70;1.50;;;;;;;10.29;100.00;101576.53;5036578;28;20108;-73
2023/01/06 06:19:39;;;;;;;8.50;2.22;;;;;;;10.23;100.00;101577.25;5039521;28;20030;-72
2023/01/06 06:22:04;;;;;;;4.97;2.63;;;;;;;10.23;100.00;101574.50;5039474;28;20122;-72
2023/01/06 06:24:30;;;;;;;2.80;1.80;;;;;;;10.25;100.00;101586.16;5043120;28;20029;-71
2023/01/06 06:26:55;;;;;;;3.20;2.08;;;;;;;10.24;100.00;101571.59;5039838;28;20412;-74
2023/01/06 06:29:20;;;;;;;6.47;2.53;;;;;;;10.26;100.00;101577.72;5036541;28;20213;-71
2023/01/06 06:31:46;;;;;;;9.43;2.20;;;;;;;10.22;100.00;101570.94;5041631;28;20031;-72
2023/01/06 06:34:12;;;;;;;4.03;2.50;;;;;;;10.24;100.00;101579.81;5037922;28;20116;-72
2023/01/06 06:36:38;;;;;;;5.57;2.67;;;;;;;10.22;100.00;101578.28;5033301;28;20033;-71
2023/01/06 06:39:03;;;;;;;2.77;2.27;;;;;;;10.22;100.00;101576.41;5030132;28;20443;-71
2023/01/06 06:41:28;;;;;;;6.57;2.40;;;;;;;10.23;100.00;101571.75;5037172;28;20033;-71
2023/01/06 06:43:54;;;;;;;2.60;2.10;;;;;;;10.25;100.00;101586.16;5040755;28;20103;-71
2023/01/06 06:46:20;;;;;;;3.38;2.28;;;;;;;10.21;100.00;101595.75;5036944;28;20057;-71
2023/01/06 06:48:46;;;;;;;7.90;2.60;;;;;;;10.28;100.00;101594.84;5043955;28;20037;-73
2023/01/06 06:51:15;;;;;;;8.43;2.47;;;;;;;10.28;100.00;101594.00;5049231;28;20050;-71
2023/01/06 06:53:41;;;;;;;2.75;2.00;;;;;;;10.22;100.00;101605.66;5039005;28;20033;-71
2023/01/06 06:56:08;;;;;;;4.65;2.28;;;;;;;10.19;100.00;101595.06;5043042;28;20124;-71
2023/01/06 06:58:35;;;;;;;2.38;2.17;;;;;;;10.17;100.00;101606.19;5041982;28;20044;-71
2023/01/06 07:01:04;;;;;;;;;;;;;;;10.19;100.00;101620.53;5045493;28;20032;-72
2023/01/06 07:03:29;;;;;;;3.25;2.30;;;;;;;10.15;100.00;101616.44;5046237;28;20007;-71
2023/01/06 07:05:55;;;;;;;5.60;2.45;;;;;;;10.12;100.00;101630.50;5047669;28;20163;-71
2023/01/06 07:08:20;;;;;;;2.15;1.90;;;;;;;10.13;100.00;101636.81;5051044;28;20040;-71
2023/01/06 07:10:46;;;;;;;3.40;2.10;;;;;;;10.11;100.00;101647.09;5051255;28;20493;-70
2023/01/06 07:13:11;;;;;;;4.40;1.80;;;;;;;10.04;100.00;101648.84;5048873;28;20507;-71
2023/01/06 07:15:37;;;;;;;5.10;1.77;;;;;;;10.00;100.00;101647.44;5050294;28;20028;-71
2023/01/06 07:18:03;;;;;;;1.98;1.83;;;;;;;9.99;100.00;101646.56;5050688;28;20389;-71
2023/01/06 07:20:31;;;;;;;4.00;1.90;;;;;;;10.00;100.00;101664.72;5054639;28;20779;-72
2023/01/06 07:22:56;;;;;;;2.13;1.40;;;;;;;9.99;100.00;101662.16;5050014;28;20142;-71
2023/01/06 07:25:22;;;;;;;1.60;1.50;;;;;;;10.01;100.00;101657.34;5051808;28;20024;-71
2023/01/06 07:27:52;;;;;;;1.97;1.40;;;;;;;9.98;100.00;101663.19;5050844;28;20017;-71
2023/01/06 07:30:18;;;;;;;2.58;1.48;;;;;;;9.94;100.00;101661.81;5052737;28;20393;-70
2023/01/06 07:32:43;;;;;;;2.90;1.58;;;;;;;9.87;100.00;101664.38;5051406;28;20032;-71
2023/01/06 07:35:09;;;;;;;5.07;1.70;;;;;;;9.85;100.00;101671.06;5048908;28;20107;-71
2023/01/06 07:37:34;;;;;;;2.55;1.80;;;;;;;9.81;100.00;101667.81;5043496;28;20028;-70
2023/01/06 07:39:59;;;;;;;5.75;2.03;;;;;;;9.77;100.00;101665.59;5047832;28;20576;-73
2023/01/06 07:42:25;;;;;;;3.03;2.33;;;;;;;9.70;100.00;101670.91;5050727;28;20362;-72
2023/01/06 07:44:50;;;;;;;2.80;2.28;;;;;;;9.63;100.00;101671.75;5049095;28;20071;-70
2023/01/06 07:47:15;;;;;;;4.77;2.53;;;;;;;9.61;100.00;101673.81;5052451;28;20072;-74
2023/01/06 07:49:41;;;;;;;3.20;2.90;;;;;;;9.57;100.00;101686.97;5043651;28;20028;-71
2023/01/06 07:52:06;;;;;;;8.75;3.58;;;;;;;9.53;100.00;101701.13;5046386;28;20492;-71
2023/01/06 07:54:31;;;;;;;10.07;3.65;;;;;;;9.52;100.00;101707.63;5049998;28;20028;-70
2023/01/06 07:56:57;;;;;;;6.63;3.40;;;;;;;9.43;100.00;101698.56;5052439;28;20154;-71
2023/01/06 07:59:22;;;;;;;12.70;4.23;;;;;;;9.46;100.00;101692.75;5044938;28;20139;-71
2023/01/06 08:01:48;;;;;;;19.70;4.30;;;;;;;9.46;100.00;101700.13;5046719;28;20028;-70
2023/01/06 08:04:13;;;;;;;12.80;4.03;;;;;;;9.48;100.00;101711.72;5051302;28;20061;-70
2023/01/06 08:06:39;;;;;;;8.93;3.15;;;;;;;9.42;100.00;101701.47;5048681;28;20028;-71
2023/01/06 08:09:04;;;;;;;17.02;4.10;;;;;;;9.39;100.00;101704.56;5053878;28;20040;-70
2023/01/06 08:11:30;;;;;;;8.35;2.60;;;;;;;9.36;100.00;101710.34;5044130;28;20111;-70
2023/01/06 08:13:55;;;;;;;8.50;2.55;;;;;;;9.32;100.00;101717.19;5053786;28;20104;-71
2023/01/06 08:16:20;;;;;;;11.27;2.67;;;;;;;9.30;100.00;101731.00;5051225;28;20025;-72
2023/01/06 08:18:46;;;;;;;13.77;2.78;;;;;;;9.28;100.00;101727.59;5051339;28;20044;-70
2023/01/06 08:21:11;;;;;;;12.23;2.92;;;;;;;9.25;100.00;101738.00;5047665;28;20600;-71
2023/01/06 08:23:37;;;;;;;14.82;3.03;;;;;;;9.21;100.00;101750.28;5048731;28;20115;-70
2023/01/06 08:26:05;;;;;;;16.97;2.13;;;;;;;9.20;100.00;101754.06;5048572;28;20017;-73
2023/01/06 08:28:30;;;;;;;12.73;2.05;;;;;;;9.23;100.00;101754.56;5043906;28;20506;-71
2023/01/06 08:30:55;;;;;;;13.90;2.45;;;;;;;9.18;100.00;101758.84;5048913;28;20079;-73
2023/01/06 08:33:23;;;;;;;19.73;2.97;;;;;;;9.15;100.00;101768.22;5049822;28;20033;-71
2023/01/06 08:35:48;;;;;;;;;;;;;;;9.14;100.00;101768.38;5055670;28;20531;-72
2023/01/06 08:38:13;;;;;;;18.48;3.75;;;;;;;9.12;100.00;101768.53;5047916;28;19916;-71
2023/01/06 08:40:39;;;;;;;19.25;3.33;;;;;;;9.09;100.00;101765.28;5046134;28;20037;-70
2023/01/06 08:43:04;;;;;;;23.73;2.47;;;;;;;9.10;100.00;101778.81;5046290;28;20507;-71
2023/01/06 08:45:29;;;;;;;20.15;2.75;;;;;;;9.09;100.00;101765.28;5053403;28;20028;-71
2023/01/06 08:48:01;;;;;;;19.42;2.58;;;;;;;9.12;100.00;101776.75;5041433;28;20048;-70
2023/01/06 08:50:27;;;;;;;16.05;2.25;;;;;;;9.13;100.00;101783.09;5052991;28;20160;-71
2023/01/06 08:52:53;;;;;;;24.13;3.03;;;;;;;9.07;100.00;101781.00;5052827;28;20086;-72
2023/01/06 08:55:18;;;;;;;18.50;4.03;;;;;;;9.06;100.00;101788.34;5051861;28;20449;-71
2023/01/06 08:57:43;;;;;;;14.35;2.55;;;;;;;8.98;100.00;101791.03;5057839;28;20016;-71
2023/01/06 09:00:09;;;;;;;16.48;2.30;;;;;;;9.02;100.00;101797.88;5053266;28;20048;-71
2023/01/06 09:02:35;;;;;;;21.98;2.65;;;;;;;9.09;100.00;101804.44;5053042;28;20108;-72
2023/01/06 09:05:00;;;;;;;21.87;2.80;;;;;;;8.97;100.00;101808.44;5051151;28;20121;-71
2023/01/06 09:07:25;;;;;;;22.00;3.75;;;;;;;9.00;100.00;101826.41;5057241;28;20024;-72
2023/01/06 09:09:51;;;;;;;14.25;2.92;;;;;;;9.03;100.00;101821.44;5051374;28;20017;-71
2023/01/06 09:12:16;;;;;;;18.90;2.43;;;;;;;8.98;100.00;101831.19;5047868;28;20444;-71
2023/01/06 09:14:42;;;;;;;20.73;2.80;;;;;;;9.01;100.00;101826.22;5052996;28;20107;-71
2023/01/06 09:17:07;;;;;;;13.38;2.63;;;;;;;8.97;100.00;101826.72;5058144;28;20080;-71
2023/01/06 09:19:32;;;;;;;16.93;2.57;;;;;;;9.00;100.00;101830.00;5053138;28;20027;-73
2023/01/06 09:21:58;;;;;;;16.77;2.10;;;;;;;8.99;100.00;101835.63;5054615;28;20033;-74
2023/01/06 09:24:23;;;;;;;14.60;3.00;;;;;;;9.03;100.00;101839.75;5052241;28;20400;-71
2023/01/06 09:26:48;;;;;;;21.90;2.55;;;;;;;9.08;100.00;101834.66;5051488;28;20032;-72
2023/01/06 09:29:14;;;;;;;9.68;2.38;;;;;;;9.00;100.00;101838.19;5054463;28;20025;-71
2023/01/06 09:31:39;;;;;;;15.88;2.97;;;;;;;9.12;100.00;101844.25;5045614;28;20488;-72
2023/01/06 09:34:05;;;;;;;16.83;2.80;;;;;;;9.06;100.00;101853.06;5039036;28;20035;-73
2023/01/06 09:36:31;;;;;;;17.15;2.45;;;;;;;9.08;100.00;101845.56;5035440;28;20476;-72
2023/01/06 09:38:57;;;;;;;19.92;3.03;;;;;;;9.13;100.00;101837.75;5037190;28;20021;-73
2023/01/06 09:42:19;;;;;;;21.73;2.20;;;;;;;9.07;100.00;101852.91;5040841;28;20072;-72
2023/01/06 09:44:55;;;;;;;18.65;2.83;;;;;;;9.11;100.00;101845.22;4967486;28;20038;-71
2023/01/06 09:47:28;;;;;;;15.43;2.22;;;;;;;9.16;100.00;101848.34;4969360;28;20059;-71
2023/01/06 09:50:36;;;;;;;17.83;2.50;;;;;;;9.25;100.00;101850.97;5016324;28;20049;-71
2023/01/06 09:53:18;;;;;;;17.73;2.58;;;;;;;9.30;100.00;101856.75;5037213;28;20040;-73
2023/01/06 09:55:48;;;;;;;11.07;2.10;;;;;;;9.31;100.00;101861.25;5041819;28;20025;-71
2023/01/06 09:58:42;;;;;;;15.95;2.80;;;;;;;9.33;100.00;101861.03;5045099;28;20036;-72
2023/01/06 10:01:11;;;;;;;9.70;2.50;;;;;;;9.29;100.00;101871.47;5028667;28;20116;-72
2023/01/06 10:03:37;;;;;;;17.25;3.03;;;;;;;9.34;100.00;101871.00;5038373;28;20496;-72
2023/01/06 10:06:32;;;;;;;13.52;3.63;;;;;;;9.42;100.00;101873.75;5039793;28;20024;-72
2023/01/06 10:09:15;;;;;;;13.50;2.25;;;;;;;9.50;100.00;101876.53;5037428;28;20038;-73
2023/01/06 10:11:52;;;;;;;11.55;2.35;;;;;;;9.59;100.00;101870.03;5039414;28;20440;-71
2023/01/06 10:14:23;;;;;;;9.18;1.83;;;;;;;9.58;100.00;101873.81;5037982;28;20064;-72
2023/01/06 10:17:00;;;;;;;14.43;2.10;;;;;;;9.63;100.00;101875.03;5036853;28;20033;-72
2023/01/06 10:20:01;;;;;;;13.18;2.28;;;;;;;9.74;100.00;101874.72;5039591;28;20128;-72
2023/01/06 10:22:53;;;;;;;17.90;2.42;;;;;;;9.80;100.00;101879.53;5036928;28;20037;-72
2023/01/06 10:25:26;;;;;;;13.07;3.75;;;;;;;9.81;100.00;101877.63;5036432;28;20040;-74
2023/01/06 10:28:01;;;;;;;20.38;2.72;;;;;;;9.82;100.00;101880.19;5035918;28;20029;-72
2023/01/06 10:30:37;;;;;;;16.85;2.33;;;;;;;9.94;100.00;101869.81;5039523;28;20361;-72
2023/01/06 10:33:04;;;;;;;16.60;3.20;;;;;;;10.01;100.00;101870.84;5037012;28;20030;-74
2023/01/06 10:35:31;;;;;;;8.10;1.75;;;;;;;10.08;100.00;101863.72;5041204;28;20025;-74
2023/01/06 10:37:57;;;;;;;19.55;3.08;;;;;;;10.19;100.00;101866.13;5043210;28;20033;-72
2023/01/06 10:40:29;;;;;;;9.52;1.67;;;;;;;10.26;100.00;101869.88;5044984;28;20578;-72
2023/01/06 10:43:02;;;;;;;14.80;2.15;;;;;;;10.27;100.00;101869.72;5040585;28;20461;-75
2023/01/06 10:45:49;;;;;;;16.55;2.22;;;;;;;10.35;100.00;101874.34;5040282;28;20031;-73
2023/01/06 10:48:23;;;;;;;10.95;1.77;;;;;;;10.47;100.00;101872.97;5041086;28;20036;-72
2023/01/06 10:50:48;;;;;;;11.52;1.55;;;;;;;10.49;100.00;101879.13;5041779;28;20036;-74
2023/01/06 10:53:14;;;;;;;13.67;1.90;;;;;;;10.56;99.43;101875.53;5037650;28;20017;-71
2023/01/06 10:55:43;;;;;;;9.43;1.48;;;;;;;10.68;98.53;101878.78;5038667;28;20526;-73
2023/01/06 10:58:11;;;;;;;9.15;1.35;;;;;;;10.74;98.31;101876.19;5039137;28;20165;-73
2023/01/06 11:00:36;;;;;;;12.23;2.22;;;;;;;10.65;98.16;101876.38;5034111;28;20432;-73
2023/01/06 11:03:05;;;;;;;8.00;2.47;;;;;;;10.68;97.01;101878.78;5036151;28;20021;-72
2023/01/06 11:05:32;;;;;;;9.20;1.73;;;;;;;10.78;95.65;101873.97;5040517;28;20032;-73
2023/01/06 11:08:01;;;;;;;9.63;1.98;;;;;;;10.85;95.76;101874.97;5040396;28;20485;-73
2023/01/06 11:10:34;;;;;;;9.98;1.40;;;;;;;10.82;95.25;101872.56;5041357;28;20362;-74
2023/01/06 11:13:01;;;;;;;7.75;1.40;;;;;;;10.83;96.15;101879.78;5033466;28;20480;-73
2023/01/06 11:15:35;;;;;;;10.20;1.58;;;;;;;10.98;95.54;101878.03;5038674;28;20466;-72
2023/01/06 11:18:02;;;;;;;12.35;1.30;;;;;;;10.95;94.13;101875.66;5039913;28;20075;-73
2023/01/06 11:20:29;;;;;;;;;;;;;;;10.91;93.04;101877.88;5041990;28;20378;-72
2023/01/06 11:22:55;;;;;;;8.30;2.17;;;;;;;10.73;91.10;101866.25;5039016;28;19908;-73
2023/01/06 11:25:22;;;;;;;8.18;1.65;;;;;;;10.79;90.73;101870.19;5043897;28;20610;-72
2023/01/06 11:28:08;;;;;;;10.35;1.80;;;;;;;10.80;90.50;101864.56;5047115;28;20550;-72
2023/01/06 11:30:39;;;;;;;9.98;1.75;;;;;;;11.01;89.41;101863.97;5037873;28;20029;-73
2023/01/06 11:33:12;;;;;;;13.85;2.08;;;;;;;10.98;88.31;101858.84;5040816;28;20045;-72
2023/01/06 11:35:38;;;;;;;9.38;1.95;;;;;;;11.02;89.95;101868.44;5039713;28;20034;-72